Time;durP1;ratioP1;P1;durP2;ratioP2;P2;SDS_P1;SDS_P2;PMS_P1;PMS_P2;Temp;Humidity;BMP_temperature;BMP_pressure;BME280_temperature;BME280_humidity;BME280_pressure;Samples;Min_cycle;Max_cycle;Signal;HPM_P1;HPM_P2
2023/04/15 00:01:25;;;;;;;1155.97;999.90;;;;;;;21.44;49.91;99278.72;20730981;28;20057;-78
2023/04/15 00:11:26;;;;;;;1143.87;999.90;;;;;;;21.43;49.79;99282.31;20755976;28;20042;-78
2023/04/15 00:21:27;;;;;;;1139.68;999.90;;;;;;;21.41;49.94;99287.75;20739317;28;20057;-78
2023/04/15 00:31:29;;;;;;;1155.22;999.90;;;;;;;21.36;50.02;99279.47;20733350;28;21483;-79
2023/04/15 00:41:30;;;;;;;1155.03;999.90;;;;;;;21.37;49.88;99278.50;20744014;28;20053;-77
2023/04/15 00:51:32;;;;;;;1161.18;999.90;;;;;;;21.36;49.66;99275.97;20742464;28;20041;-77
2023/04/15 01:01:34;;;;;;;1156.97;999.90;;;;;;;21.33;49.96;99263.94;20733184;28;20041;-77
2023/04/15 01:11:36;;;;;;;1154.07;999.90;;;;;;;21.33;49.48;99263.13;20750670;28;20061;-77
2023/04/15 01:21:38;;;;;;;1161.15;999.90;;;;;;;21.29;50.09;99259.97;20745713;28;20049;-76
2023/04/15 01:31:39;;;;;;;1154.20;999.90;;;;;;;21.27;50.00;99267.16;20741138;28;21120;-75
2023/04/15 01:41:41;;;;;;;1159.03;999.90;;;;;;;21.26;49.95;99273.41;20740499;28;20148;-75
2023/04/15 01:51:41;;;;;;;1154.10;999.90;;;;;;;21.23;49.83;99277.16;20740076;28;20519;-75
2023/04/15 02:01:41;;;;;;;1159.43;999.90;;;;;;;21.21;49.73;99273.84;20755369;28;20049;-75
2023/04/15 02:11:43;;;;;;;1150.40;999.90;;;;;;;21.20;49.86;99272.19;20755482;28;20048;-74
2023/04/15 02:21:44;;;;;;;1153.93;999.90;;;;;;;21.20;49.84;99287.16;20750102;28;20046;-75
2023/04/15 02:31:44;;;;;;;1155.13;999.90;;;;;;;21.18;49.99;99279.41;20742589;28;20389;-77
2023/04/15 02:41:50;;;;;;;1153.53;999.90;;;;;;;21.18;49.94;99299.63;20754547;28;20091;-78
2023/04/15 02:51:52;;;;;;;1147.70;999.90;;;;;;;21.16;50.19;99289.25;20746274;28;20083;-78
2023/04/15 03:01:52;;;;;;;1152.70;999.90;;;;;;;21.15;50.39;99282.31;20749306;28;20057;-78
2023/04/15 03:11:53;;;;;;;1152.03;999.90;;;;;;;21.14;50.62;99278.06;20756665;28;20091;-79
2023/04/15 03:21:54;;;;;;;1153.78;999.90;;;;;;;21.12;50.55;99272.09;20748100;28;20059;-75
2023/04/15 03:31:54;;;;;;;1153.13;999.90;;;;;;;21.11;50.22;99265.97;20744959;28;20596;-77
2023/04/15 03:41:55;;;;;;;1147.32;999.90;;;;;;;21.08;49.91;99278.59;20745179;28;20289;-75
2023/04/15 03:51:56;;;;;;;1148.88;999.90;;;;;;;21.06;50.10;99281.38;20722733;28;20052;-79
2023/04/15 04:01:56;;;;;;;1150.05;999.90;;;;;;;21.06;50.58;99281.38;20725851;28;20076;-75
2023/04/15 04:11:57;;;;;;;1152.90;999.90;;;;;;;21.11;50.56;99273.88;20698194;28;20049;-77
2023/04/15 04:21:57;;;;;;;1151.50;999.90;;;;;;;21.14;50.24;99279.84;20725832;28;20487;-74
2023/04/15 04:31:58;;;;;;;1153.30;999.90;;;;;;;21.15;49.91;99269.16;20725538;28;20176;-73
2023/04/15 04:41:58;;;;;;;1154.50;999.90;;;;;;;21.20;50.15;99279.25;20729885;28;20672;-76
2023/04/15 04:51:59;;;;;;;1150.57;999.90;;;;;;;21.18;50.16;99270.66;20707324;28;20187;-75
2023/04/15 05:02:00;;;;;;;1137.63;999.90;;;;;;;21.21;50.37;99279.09;20709981;28;20052;-75
2023/04/15 05:12:00;;;;;;;1137.65;999.90;;;;;;;21.27;50.23;99283.78;20712465;28;20294;-75
2023/04/15 05:22:01;;;;;;;1152.07;999.90;;;;;;;21.32;50.72;99283.34;20693694;28;20056;-75
2023/04/15 05:32:01;;;;;;;1156.50;999.90;;;;;;;21.36;51.08;99279.47;20714656;28;20058;-75
2023/04/15 05:42:02;;;;;;;1150.22;999.90;;;;;;;21.41;51.23;99289.53;20720006;28;20463;-74
2023/04/15 05:52:02;;;;;;;1127.10;999.90;;;;;;;21.43;51.00;99284.94;20727528;28;20037;-76
2023/04/15 06:02:03;;;;;;;1147.65;999.90;;;;;;;21.48;51.18;99295.88;20734012;28;20041;-75
2023/04/15 06:12:05;;;;;;;1148.45;999.90;;;;;;;21.44;47.15;99312.94;20734381;28;20483;-73
2023/04/15 06:22:06;;;;;;;1131.27;999.90;;;;;;;21.51;51.35;99311.38;20722800;28;20915;-76
2023/04/15 06:32:07;;;;;;;1139.28;999.90;;;;;;;21.56;51.48;99318.84;20732296;28;20396;-75
2023/04/15 06:42:10;;;;;;;1152.78;999.90;;;;;;;21.60;51.09;99328.16;20717008;28;20440;-76
2023/04/15 06:52:11;;;;;;;1150.40;999.90;;;;;;;21.62;51.11;99342.00;20701291;28;20045;-76
2023/04/15 07:02:13;;;;;;;1144.50;999.90;;;;;;;21.59;50.44;99335.22;20718847;28;20050;-76
2023/04/15 07:12:14;;;;;;;1150.38;999.90;;;;;;;21.64;50.99;99345.31;20733997;28;20053;-79
2023/04/15 07:22:14;;;;;;;1157.90;999.90;;;;;;;21.66;50.90;99335.44;20732497;28;20041;-79
2023/04/15 07:32:15;;;;;;;1155.07;999.90;;;;;;;21.68;50.67;99340.56;20695939;28;1193784;-79
2023/04/15 07:42:15;;;;;;;1145.95;999.90;;;;;;;21.70;50.46;99342.09;20737627;28;20073;-79
2023/04/15 07:52:16;;;;;;;1159.07;999.90;;;;;;;21.73;50.77;99348.88;20730898;28;20049;-78
2023/04/15 08:02:17;;;;;;;1153.85;999.90;;;;;;;21.75;50.17;99353.03;20734853;28;20057;-77
2023/04/15 08:12:17;;;;;;;1164.55;999.90;;;;;;;21.77;50.12;99346.78;20730112;28;20046;-77
2023/04/15 08:22:18;;;;;;;1170.57;999.90;;;;;;;21.79;50.33;99350.91;20726488;28;20044;-79
2023/04/15 08:32:19;;;;;;;1169.05;999.90;;;;;;;21.83;50.16;99364.63;20736371;28;20432;-78
2023/04/15 08:42:26;;;;;;;1168.97;999.90;;;;;;;21.83;50.18;99359.38;20727654;28;20193;-76
2023/04/15 08:52:27;;;;;;;1170.50;999.90;;;;;;;21.74;46.87;99374.25;20717233;28;20045;-79
2023/04/15 09:02:28;;;;;;;1166.70;999.90;;;;;;;21.74;46.73;99372.44;20712178;28;20049;-80
2023/04/15 09:12:28;;;;;;;1166.07;999.90;;;;;;;21.77;47.64;99379.22;20723641;28;20107;-77
2023/04/15 09:22:32;;;;;;;1166.47;999.90;;;;;;;21.79;46.83;99386.97;20754976;28;20128;-77
2023/04/15 09:32:32;;;;;;;1165.50;999.90;;;;;;;21.69;43.09;99379.97;20718466;28;20046;-79
2023/04/15 09:42:33;;;;;;;1166.95;999.90;;;;;;;21.76;45.22;99374.91;20729985;28;20053;-79
2023/04/15 09:52:41;;;;;;;1171.53;999.90;;;;;;;21.76;45.53;99374.91;20728549;28;20042;-81
2023/04/15 10:02:42;;;;;;;1169.97;999.90;;;;;;;21.81;45.78;99379.75;20733624;28;21118;-80
2023/04/15 10:12:42;;;;;;;1151.97;999.90;;;;;;;20.63;37.74;99382.72;20737341;28;20096;-79
2023/04/15 10:22:44;;;;;;;1101.10;999.90;;;;;;;20.06;36.45;99400.94;20729393;28;20050;-78
2023/04/15 10:32:45;;;;;;;1122.70;999.90;;;;;;;20.76;38.55;99392.94;20737126;28;20045;-78
2023/04/15 10:42:46;;;;;;;1096.75;999.90;;;;;;;20.97;41.45;99389.31;20729981;28;20041;-77
2023/04/15 10:52:50;;;;;;;1121.47;999.90;;;;;;;20.99;42.06;99400.56;20693846;28;20464;-75
2023/04/15 11:02:55;;;;;;;1098.43;999.90;;;;;;;21.11;41.33;99404.69;20711048;28;20053;-82
2023/04/15 11:13:00;;;;;;;1101.03;999.90;;;;;;;20.26;41.20;99442.06;20717886;28;20124;-79
2023/04/15 11:23:01;;;;;;;1126.72;999.90;;;;;;;20.99;44.12;99422.41;20724019;28;20055;-78
2023/04/15 11:33:04;;;;;;;1117.28;999.90;;;;;;;21.22;45.41;99424.75;20734228;28;20049;-77
2023/04/15 11:43:10;;;;;;;1098.57;999.90;;;;;;;21.37;46.51;99417.22;20726024;28;20102;-77
2023/04/15 11:53:14;;;;;;;1118.63;999.90;;;;;;;21.52;47.27;99434.22;20724446;28;20058;-77
2023/04/15 12:03:24;;;;;;;1131.40;999.90;;;;;;;21.61;48.01;99431.72;20755964;28;20521;-77
2023/04/15 12:13:26;;;;;;;1144.95;999.90;;;;;;;21.69;48.34;99430.03;20778744;28;20060;-78
2023/04/15 12:23:27;;;;;;;1128.57;999.90;;;;;;;;;;20766106;28;20451;-76
2023/04/15 12:33:39;;;;;;;1141.30;999.90;;;;;;;21.77;48.13;99429.28;20757567;28;20045;-76
2023/04/15 12:43:40;;;;;;;1143.57;999.90;;;;;;;21.81;47.74;99440.38;20754913;28;20052;-76
2023/04/15 12:53:41;;;;;;;1166.73;999.90;;;;;;;21.81;47.78;99454.34;20760251;28;20046;-77
2023/04/15 13:03:43;;;;;;;1168.95;999.90;;;;;;;21.83;47.57;99465.59;20758122;28;20156;-76
2023/04/15 13:13:47;;;;;;;1165.60;999.90;;;;;;;21.84;47.30;99467.25;20735285;28;20124;-76
2023/04/15 13:23:51;;;;;;;1158.60;999.90;;;;;;;21.85;47.35;99460.16;20741235;28;20069;-77
2023/04/15 13:33:51;;;;;;;1167.78;999.90;;;;;;;21.85;47.14;99466.28;20758546;28;20042;-76
2023/04/15 13:43:51;;;;;;;1160.45;999.90;;;;;;;21.85;47.36;99471.56;20747007;28;20124;-78
2023/04/15 13:54:02;;;;;;;1165.38;999.90;;;;;;;21.87;47.02;99471.41;20736692;28;20041;-78
2023/04/15 14:04:03;;;;;;;1170.15;999.90;;;;;;;21.87;47.35;99479.31;20756242;28;20041;-78
2023/04/15 14:14:04;;;;;;;1163.00;999.90;;;;;;;21.91;47.45;99489.41;20770101;28;20057;-77
2023/04/15 14:24:11;;;;;;;1171.32;999.90;;;;;;;21.95;47.30;99494.38;20758314;28;20053;-77
2023/04/15 14:34:12;;;;;;;1168.95;999.90;;;;;;;21.92;47.50;99503.41;20760399;28;20141;-77
2023/04/15 14:44:12;;;;;;;1173.75;999.90;;;;;;;21.88;47.25;99508.16;20753652;28;20125;-77
2023/04/15 14:54:13;;;;;;;1176.90;999.90;;;;;;;21.86;47.02;99518.03;20766202;28;20132;-77
2023/04/15 15:04:15;;;;;;;1175.55;999.90;;;;;;;21.87;47.00;99514.41;20753365;28;20081;-77
2023/04/15 15:14:16;;;;;;;1173.27;999.90;;;;;;;21.84;46.86;99511.25;20758032;28;20128;-77
2023/04/15 15:24:21;;;;;;;1173.87;999.90;;;;;;;21.85;47.12;99536.59;20760324;28;20052;-76
2023/04/15 15:34:22;;;;;;;1174.47;999.90;;;;;;;21.85;47.56;99552.41;20793831;28;20144;-74
2023/04/15 15:44:22;;;;;;;1176.32;999.90;;;;;;;21.83;47.81;99559.66;20766022;28;20049;-77
2023/04/15 15:54:23;;;;;;;1176.03;999.90;;;;;;;21.81;47.71;99575.56;20759021;28;20053;-76
2023/04/15 16:04:24;;;;;;;1172.40;999.90;;;;;;;21.79;48.15;99596.00;20748433;28;20053;-76
2023/04/15 16:14:27;;;;;;;1173.55;999.90;;;;;;;21.78;47.95;99596.13;20728265;28;20124;-76
2023/04/15 16:24:32;;;;;;;1172.03;999.90;;;;;;;21.76;48.50;99598.91;20747884;28;20982;-77
2023/04/15 16:34:34;;;;;;;1172.97;999.90;;;;;;;21.74;48.26;99600.88;20756513;28;20064;-76
2023/04/15 16:44:34;;;;;;;1167.63;999.90;;;;;;;21.74;48.92;99598.22;20764128;28;20516;-78
2023/04/15 16:54:39;;;;;;;1173.07;999.90;;;;;;;21.73;49.39;99623.72;20754182;28;20041;-72
2023/04/15 17:04:46;;;;;;;1172.30;999.90;;;;;;;21.71;49.36;99638.84;20730363;28;20046;-73
2023/04/15 17:14:49;;;;;;;1172.30;999.90;;;;;;;21.73;49.18;99649.25;20749822;28;20125;-74
2023/04/15 17:24:49;;;;;;;1171.25;999.90;;;;;;;21.74;49.33;99672.00;20783732;28;20045;-74
2023/04/15 17:45:46;;;;;;;1165.88;999.90;;;;;;;21.69;49.78;99679.47;20787912;28;20132;-73
2023/04/15 17:55:49;;;;;;;1165.40;999.90;;;;;;;21.68;50.17;99691.84;20763055;28;20129;-73
2023/04/15 18:05:49;;;;;;;1161.37;999.90;;;;;;;21.64;50.22;99706.25;20783134;28;20349;-73
2023/04/15 18:15:50;;;;;;;1166.40;999.90;;;;;;;21.64;50.56;99714.16;20766282;28;20033;-73
2023/04/15 18:25:51;;;;;;;1166.30;999.90;;;;;;;21.65;51.33;99726.34;20758861;28;20124;-73
2023/04/15 18:35:52;;;;;;;1164.13;999.90;;;;;;;21.66;51.38;99749.09;20754066;28;20117;-76
2023/04/15 18:45:53;;;;;;;1165.63;999.90;;;;;;;21.67;52.04;99769.22;20752237;28;20411;-77
2023/04/15 18:55:56;;;;;;;1163.30;999.90;;;;;;;21.65;50.74;99789.59;20756986;28;20038;-75
2023/04/15 19:05:57;;;;;;;1152.40;999.90;;;;;;;21.65;50.77;99804.56;20756854;28;20505;-75
2023/04/15 19:15:59;;;;;;;1159.07;999.90;;;;;;;21.59;52.14;99822.59;20775481;28;20037;-73
2023/04/15 19:26:07;;;;;;;1137.33;999.90;;;;;;;21.55;52.56;99828.22;20765080;28;20042;-73
2023/04/15 19:36:17;;;;;;;1151.78;999.90;;;;;;;21.57;52.97;99842.13;20752335;28;20057;-73
2023/04/15 19:46:26;;;;;;;1146.65;999.90;;;;;;;21.58;53.02;99854.31;20754126;28;20054;-75
2023/04/15 19:56:29;;;;;;;1123.22;999.90;;;;;;;21.56;53.08;99858.88;20752150;28;20041;-73
2023/04/15 20:06:31;;;;;;;1117.43;999.90;;;;;;;21.54;52.90;99852.91;20752070;28;20144;-73
2023/04/15 20:16:34;;;;;;;1077.47;991.75;;;;;;;21.58;52.99;99876.25;20752792;28;20070;-73
2023/04/15 20:26:36;;;;;;;1109.15;999.90;;;;;;;21.54;53.01;99873.97;20759593;28;20357;-73
2023/04/15 20:36:41;;;;;;;1119.35;999.90;;;;;;;21.56;52.76;99875.53;20768134;28;20180;-74
2023/04/15 20:46:41;;;;;;;1085.72;998.72;;;;;;;21.55;52.78;99889.63;20763046;28;20050;-74
2023/04/15 20:56:42;;;;;;;1091.30;999.90;;;;;;;21.49;52.87;99882.28;20752180;28;20593;-73
2023/04/15 21:06:42;;;;;;;1084.30;998.17;;;;;;;21.51;52.95;99895.34;20750637;28;20045;-74
2023/04/15 21:16:43;;;;;;;1101.30;999.90;;;;;;;21.50;53.01;99909.47;20763261;28;20037;-73
2023/04/15 21:26:43;;;;;;;1084.88;999.03;;;;;;;21.48;52.86;99922.75;20762587;28;20108;-74
2023/04/15 21:37:11;;;;;;;1117.90;999.90;;;;;;;21.51;52.80;99932.22;20767737;28;20050;-73
2023/04/15 21:47:12;;;;;;;1107.43;999.90;;;;;;;21.46;52.82;99927.34;20753880;28;20057;-74
2023/04/15 21:57:13;;;;;;;1101.28;999.90;;;;;;;21.47;52.94;99944.81;20761574;28;20117;-72
2023/04/15 22:07:13;;;;;;;1095.65;999.90;;;;;;;21.45;52.82;99949.38;20754293;28;20065;-72
2023/04/15 22:17:13;;;;;;;1108.68;999.90;;;;;;;21.39;52.65;99950.72;20746614;28;20187;-73
2023/04/15 22:27:17;;;;;;;1114.40;999.90;;;;;;;21.41;53.15;99964.59;20766639;28;20045;-73
2023/04/15 22:37:18;;;;;;;1094.80;999.90;;;;;;;21.35;52.83;99949.31;20765790;28;20038;-73
2023/04/15 22:47:19;;;;;;;1085.45;998.40;;;;;;;21.38;52.98;99958.75;20774988;28;20080;-73
2023/04/15 22:57:21;;;;;;;1091.40;999.90;;;;;;;21.34;53.05;99968.72;20770535;28;20481;-73
2023/04/15 23:07:21;;;;;;;1070.10;985.72;;;;;;;21.35;52.78;99970.38;20767840;28;20451;-73
2023/04/15 23:17:22;;;;;;;1044.10;961.20;;;;;;;21.34;52.61;99971.34;20762313;28;20038;-73
2023/04/15 23:27:22;;;;;;;1052.35;969.15;;;;;;;21.33;52.63;99969.69;20766758;28;20173;-73
2023/04/15 23:37:25;;;;;;;1055.72;972.22;;;;;;;21.30;52.73;99977.00;20770621;28;20034;-75
2023/04/15 23:47:25;;;;;;;1040.35;957.70;;;;;;;21.34;52.81;99996.88;20769977;28;20042;-73
2023/04/15 23:57:40;;;;;;;1041.72;959.03;;;;;;;21.32;52.72;99993.50;20763457;28;20535;-72
